AirNav   Pilot Hours Calculator
 
 889 users online  

0PN4 Kitner Airport
New Bloomfield, Pennsylvania, USA

GOING TO NEW BLOOMFIELD?


FAA INFORMATION EFFECTIVE 08 OCTOBER 2020

Location

FAA Identifier: 0PN4
Lat/Long: 40-24-46.3000N 077-14-28.9400W
40-24.771667N 077-14.482333W
40.4128611,-77.2413722
(estimated)
Elevation: 960 ft. / 293 m (estimated)
Variation: 11W (1995)
From city: 2 miles W of NEW BLOOMFIELD, PA
Time zone: UTC -4 (UTC -5 during Standard Time)
Zip code: 17024

Airport Operations

Airport use: Private use. Permission required prior to landing
Activation date: 04/1999
Control tower: no
ARTCC: NEW YORK CENTER
FSS: WILLIAMSPORT FLIGHT SERVICE STATION
Attendance: UNATNDD
Wind indicator: yes
Segmented circle: no

Nearby radio navigation aids

VOR radial/distance  VOR name  Freq  Var
HARr320/10.3HARRISBURG VORTAC112.5010W
SEGr224/27.9SELINSGROVE VOR/DME110.4008W
RAVr265/30.5RAVINE VORTAC114.6011W

 
NDB name  Hdg/Dist  Freq  Var  ID
BELLGROVE277/31.532810WBZJ -... --.. .---

Airport Services

Runway Information

Runway 7/25

Dimensions: 500 x 100 ft. / 152 x 30 m
Surface: turf, in good condition
RUNWAY 7  RUNWAY 25
Traffic pattern: leftleft

Airport Ownership and Management from official FAA records

Ownership: Privately-owned
Owner: KIRBY W. KITNER
, 7214 SPRING RD
NEW BLOOMFIELD, PA 17068
Phone 717-582-4872
Manager: KIRBY W. KITNER
7214 SPRING RD
NEW BLOOMFIELD, PA 17068
Phone 717-582-4872

Airport Operational Statistics

Aircraft based on the field: 1
Ultralights: 1
    

Additional Remarks

FOR CD CTC HARRISBURG APCH AT 800-932-0712.

Instrument Procedures

There are no published instrument procedures at 0PN4.

Some nearby airports with instrument procedures:

P34 - Mifflintown Airport (13 nm NW)
N94 - Carlisle Airport (14 nm S)
KCXY - Capital City Airport (21 nm SE)
KRVL - Mifflin County Airport (24 nm NW)
KMDT - Harrisburg International Airport (26 nm SE)
 
Loc | Ops | Rwys | IFR | FBO | Links
Com | Nav | Svcs | Stats | Notes
Area around 0PN4 (Kitner Airport)
 
Road maps at: MapQuest Bing Google
 
Aerial photo
No photo
 
Sectional chart

 
Airport distance calculator
Flying to Kitner Airport? Find the distance to fly.

From to 0PN4

Sunrise and sunset
Times for 30-Oct-2020
 Local
(UTC-4)
 Zulu
(UTC)
Morning civil twilight07:1011:10
Sunrise07:3911:39
Sunset18:0722:07
Evening civil twilight18:3522:35

Current date and time
Zulu (UTC)  31-Oct-2020 02:14:57
Local (UTC-4)  30-Oct-2020 22:14:57
 
METAR
KCXY 
21nm SE 
310156Z AUTO 35003KT 10SM BKN045 OVC055 08/00 A3027 RMK AO2 SLP253 T00780000
KRVL 
24nm NW 
310155Z AUTO VRB04KT 10SM BKN065 05/03 A3026 RMK AO2 P0001
KMDT 
25nm SE 
310156Z 32004KT 10SM FEW040 BKN055 BKN070 07/01 A3027 RMK AO2 SLP251 T00670011
KSEG 
30nm NE 
310153Z AUTO 32004KT 10SM OVC065 04/02 A3027 RMK AO2 SLP255 T00390017
KMUI 
31nm E 
310156Z AUTO 35004KT 10SM BKN070 04/M01 A3026 RMK AO2 SLP253 T00421006
KTHV 
34nm SE 
310153Z AUTO 36004KT 10SM -RA FEW028 BKN038 OVC065 06/03 A3026 RMK AO2 RAB06E32B51 SLP250 P0000 T00610028
KUNV 
38nm NW 
310153Z 31006KT 10SM BKN055 03/01 A3026
TAF
KMDT 
25nm SE 
302245Z 3023/3118 35005KT P6SM -SHRA SCT025 OVC035 FM310200 32007KT P6SM BKN035 FM310600 33004KT P6SM SCT040 FM311500 VRB03KT P6SM FEW050
KMUI 
31nm E 
301900Z 3019/0101 34009KT 9999 OVC020 QNH3001INS BECMG 0100/0101 16009KT 9999 SCT023 QNH3039INS TX08/3021Z TN01/3112Z LAST NO AMDS AFT 3104 NEXT 0211
NOTAMs
Click for the latest NOTAMs
NOTAMs are issued by the DoD/FAA and will open in a separate window not controlled by AirNav.

 

 
 

Would you like to see your business listed on this page?

 If your business provides an interesting product or service to pilots, flight crews, aircraft, or users of the Kitner Airport, you should consider listing it here.  To start the listing process, click on the button below
 
Add a business
 

Other Pages about Kitner Airport

Update a link
 
Copyright © AirNav, LLC. All rights reserved. Privacy Policy  Contact